createdAt,value
2018-11-22T12:17:36.297Z,34.88
2018-11-22T12:20:04.873Z,34.15
2018-11-22T12:22:33.187Z,33.75
2018-11-22T12:25:01.539Z,38.33
2018-11-22T12:27:29.903Z,38.23
2018-11-22T12:29:58.246Z,39.83
2018-11-22T12:32:32.752Z,35.17
2018-11-22T12:37:07.551Z,31.80
2018-11-22T12:39:35.882Z,36.40
2018-11-22T12:42:04.387Z,36.85
2018-11-22T12:44:32.763Z,38.75
2018-11-22T12:47:01.111Z,39.70
2018-11-22T12:49:29.433Z,36.88
2018-11-22T12:51:57.764Z,35.40
2018-11-22T12:54:26.127Z,34.33
2018-11-22T12:56:54.427Z,38.83
2018-11-22T12:59:22.772Z,41.15
2018-11-22T13:01:51.117Z,33.60
2018-11-22T13:04:19.537Z,39.73
2018-11-22T13:06:48.542Z,51.35
2018-11-22T13:09:16.886Z,33.13
2018-11-22T13:11:47.738Z,35.63
2018-11-22T13:14:13.627Z,37.80
2018-11-22T13:16:41.946Z,34.35
2018-11-22T13:19:11.058Z,37.60
2018-11-22T13:21:39.366Z,33.13
2018-11-22T13:24:07.678Z,39.65
2018-11-22T13:26:35.989Z,33.20
2018-11-22T13:29:04.954Z,35.05
2018-11-22T13:31:33.329Z,36.90
2018-11-22T13:34:02.307Z,33.78
2018-11-22T13:36:30.609Z,40.23
2018-11-22T13:38:58.909Z,41.37
2018-11-22T13:41:27.248Z,37.63
2018-11-22T13:43:55.657Z,42.33
2018-11-22T13:46:23.966Z,43.08
2018-11-22T13:48:52.290Z,32.67
2018-11-22T13:51:21.241Z,37.38
2018-11-22T13:53:49.569Z,40.93
2018-11-22T13:56:17.895Z,32.73
2018-11-22T13:58:46.230Z,28.63
2018-11-22T14:01:15.505Z,30.37
2018-11-22T14:03:43.854Z,36.65
2018-11-22T14:06:12.166Z,36.50
2018-11-22T14:08:41.397Z,35.48
2018-11-22T14:11:14.132Z,37.93
2018-11-22T14:13:38.700Z,35.87
2018-11-22T14:16:07.615Z,35.58
2018-11-22T14:18:35.935Z,36.70
2018-11-22T14:21:04.279Z,35.58
2018-11-22T14:23:32.626Z,35.33
2018-11-22T14:26:00.930Z,31.33
2018-11-22T14:28:29.208Z,34.20
2018-11-22T14:30:57.516Z,30.70
2018-11-22T14:33:25.809Z,34.23
2018-11-22T14:35:54.143Z,32.87
2018-11-22T14:38:22.441Z,35.37
2018-11-22T14:40:50.793Z,30.83
2018-11-22T14:43:19.101Z,36.43
2018-11-22T14:45:47.814Z,33.10
2018-11-22T14:48:16.138Z,31.33
2018-11-22T14:50:50.238Z,33.43
2018-11-22T14:53:19.980Z,30.83
2018-11-22T14:55:48.317Z,32.33
2018-11-22T14:58:16.735Z,32.73
2018-11-22T15:00:45.473Z,33.90
2018-11-22T15:03:13.806Z,34.20
2018-11-22T15:05:42.096Z,36.53
2018-11-22T15:08:10.454Z,45.27
2018-11-22T15:10:38.775Z,32.67
2018-11-22T15:13:07.478Z,33.13
2018-11-22T15:15:35.815Z,39.70
2018-11-22T15:18:04.436Z,37.00
2018-11-22T15:20:32.762Z,40.00
2018-11-22T15:23:01.545Z,40.90
2018-11-22T15:25:30.333Z,38.40
2018-11-22T15:28:01.472Z,47.10
2018-11-22T15:30:30.231Z,52.15
2018-11-22T15:32:58.876Z,45.60
2018-11-22T15:35:29.302Z,50.60
2018-11-22T15:37:58.541Z,53.23
2018-11-22T15:40:27.233Z,57.35
2018-11-22T15:42:57.091Z,48.50
2018-11-22T15:45:30.356Z,47.45
2018-11-22T15:47:55.441Z,38.90
2018-11-22T15:50:25.474Z,49.77
2018-11-22T15:52:53.853Z,41.77
2018-11-22T15:55:23.641Z,43.48
2018-11-22T15:57:53.407Z,38.58
2018-11-22T16:00:23.863Z,48.38
2018-11-22T16:02:52.778Z,41.75
2018-11-22T16:05:21.702Z,44.65
2018-11-22T16:07:50.019Z,38.42
2018-11-22T16:10:26.342Z,43.05
2018-11-22T16:12:50.522Z,38.90
2018-11-22T16:15:35.991Z,40.80
2018-11-22T16:18:04.325Z,39.88
2018-11-22T16:20:32.654Z,40.40
2018-11-22T16:23:00.986Z,41.08
2018-11-22T16:25:29.333Z,44.42
2018-11-22T16:27:57.649Z,41.35
2018-11-22T16:30:27.178Z,37.42
2018-11-22T16:32:55.527Z,44.63
2018-11-22T16:35:24.684Z,43.52
2018-11-22T16:37:53.549Z,38.50
2018-11-22T16:40:23.685Z,38.98
2018-11-22T16:42:53.015Z,38.02
2018-11-22T16:45:28.387Z,37.10
2018-11-22T16:47:57.472Z,40.15
2018-11-22T16:50:27.528Z,38.30
2018-11-22T16:52:55.976Z,45.92
2018-11-22T16:55:25.038Z,39.78
2018-11-22T16:57:54.542Z,37.05
2018-11-22T17:00:25.019Z,43.70
2018-11-22T17:02:54.569Z,44.13
2018-11-22T17:05:23.176Z,42.90
2018-11-22T17:07:51.574Z,39.58
2018-11-22T17:10:21.328Z,46.83
2018-11-22T17:12:50.569Z,40.48
2018-11-22T17:15:20.084Z,49.30
2018-11-22T17:17:49.832Z,60.55
2018-11-22T17:20:19.490Z,54.80
2018-11-22T17:22:49.660Z,54.25
2018-11-22T17:25:19.386Z,42.30
2018-11-22T17:27:49.625Z,43.50
2018-11-22T17:30:18.551Z,45.00
2018-11-22T17:32:46.974Z,44.63
2018-11-22T17:35:17.144Z,43.95
2018-11-22T17:37:45.513Z,40.05
2018-11-22T17:40:21.050Z,51.25
2018-11-22T17:42:49.387Z,43.87
2018-11-22T17:45:23.168Z,42.03
2018-11-22T17:47:51.654Z,42.03
2018-11-22T17:50:20.520Z,44.83
2018-11-22T17:52:49.386Z,47.53
2018-11-22T17:55:21.982Z,48.35
2018-11-22T17:57:50.318Z,36.93
2018-11-22T18:00:21.534Z,44.08
2018-11-22T18:02:51.054Z,45.83
2018-11-22T18:05:19.389Z,46.37
2018-11-22T18:07:47.679Z,48.48
2018-11-22T18:10:19.305Z,49.65
2018-11-22T18:12:48.274Z,42.93
2018-11-22T18:15:17.575Z,45.95
2018-11-22T18:17:46.190Z,45.98
2018-11-22T18:20:17.841Z,51.55
2018-11-22T18:22:46.905Z,44.53
2018-11-22T18:25:16.734Z,42.98
2018-11-22T18:27:45.085Z,47.30
2018-11-22T18:30:16.450Z,46.42
2018-11-22T18:32:46.019Z,47.70
2018-11-22T18:35:14.711Z,50.85
2018-11-22T18:37:43.036Z,48.50
2018-11-22T18:40:15.152Z,46.58
2018-11-22T18:42:44.652Z,50.08
2018-11-22T18:45:14.494Z,51.98
2018-11-22T18:47:43.718Z,43.08
2018-11-22T18:50:15.860Z,45.73
2018-11-22T18:52:45.461Z,45.30
2018-11-22T18:55:16.151Z,48.13
2018-11-22T18:57:45.067Z,42.55
2018-11-22T19:00:15.514Z,50.55
2018-11-22T19:02:43.845Z,43.38
2018-11-22T19:05:13.269Z,48.58
2018-11-22T19:07:42.523Z,45.85
2018-11-22T19:10:14.280Z,42.35
2018-11-22T19:12:43.846Z,45.70
2018-11-22T19:15:15.053Z,44.38
2018-11-22T19:17:43.621Z,54.20
2018-11-22T19:20:14.617Z,50.85
2018-11-22T19:22:44.094Z,54.40
2018-11-22T19:25:12.424Z,54.30
2018-11-22T19:27:42.380Z,45.85
2018-11-22T19:30:14.424Z,52.73
2018-11-22T19:32:43.741Z,45.08
2018-11-22T19:35:13.177Z,43.35
2018-11-22T19:37:41.868Z,48.65
2018-11-22T19:40:14.822Z,51.80
2018-11-22T19:42:46.422Z,45.23
2018-11-22T19:45:16.006Z,45.65
2018-11-22T19:47:44.791Z,44.83
2018-11-22T19:50:14.881Z,50.10
2018-11-22T19:52:43.859Z,45.78
2018-11-22T19:55:14.246Z,47.67
2018-11-22T19:57:45.043Z,50.58
2018-11-22T20:00:16.637Z,48.08
2018-11-22T20:02:47.184Z,40.75
2018-11-22T20:05:17.041Z,57.38
2018-11-22T20:07:48.856Z,46.43
2018-11-22T20:10:25.665Z,59.10
2018-11-22T20:12:54.823Z,46.28
2018-11-22T20:15:26.156Z,45.70
2018-11-22T20:18:00.714Z,47.08
2018-11-22T20:20:30.172Z,48.75
2018-11-22T20:23:01.300Z,43.78
2018-11-22T20:25:32.883Z,42.95
2018-11-22T20:28:04.443Z,47.78
2018-11-22T20:30:42.157Z,47.78
2018-11-22T20:33:13.993Z,49.55
2018-11-22T20:35:47.816Z,47.88
2018-11-22T20:38:25.331Z,43.75
2018-11-22T20:40:57.591Z,48.08
2018-11-22T20:43:38.072Z,50.52
2018-11-22T20:46:12.953Z,47.48
2018-11-22T20:48:45.918Z,49.40
2018-11-22T20:51:21.310Z,46.65
2018-11-22T20:53:52.258Z,47.93
2018-11-22T20:56:28.050Z,46.18
2018-11-22T20:58:59.797Z,40.50
2018-11-22T21:04:13.859Z,49.73
2018-11-22T21:06:48.152Z,45.28
2018-11-22T21:09:25.963Z,48.00
2018-11-22T21:11:57.661Z,45.23
2018-11-22T21:14:29.157Z,52.30
2018-11-22T21:17:00.831Z,55.78
2018-11-22T21:19:33.969Z,49.88
2018-11-22T21:22:08.625Z,46.83
2018-11-22T21:24:47.015Z,46.10
2018-11-22T21:27:20.115Z,47.73
2018-11-22T21:29:52.434Z,50.45
2018-11-22T21:32:25.060Z,44.30
2018-11-22T21:34:57.803Z,46.08
2018-11-22T21:37:30.232Z,52.27
2018-11-22T21:40:02.590Z,49.63
2018-11-22T21:42:40.674Z,50.55
2018-11-22T21:45:17.808Z,45.73
2018-11-22T21:47:46.145Z,50.00
2018-11-22T21:50:15.562Z,55.23
2018-11-22T21:52:53.875Z,45.45
2018-11-22T21:55:26.615Z,50.40
2018-11-22T21:57:59.095Z,51.48
2018-11-22T22:00:40.213Z,51.95
2018-11-22T22:03:09.918Z,48.02
2018-11-22T22:05:38.669Z,55.28
2018-11-22T22:08:07.205Z,50.70
2018-11-22T22:10:35.573Z,47.58
2018-11-22T22:13:04.010Z,49.25
2018-11-22T22:15:33.452Z,54.00
2018-11-22T22:18:01.802Z,53.30
2018-11-22T22:20:32.108Z,56.33
2018-11-22T22:23:00.435Z,55.98
2018-11-22T22:25:28.986Z,53.65
2018-11-22T22:27:57.567Z,56.55
2018-11-22T22:30:27.303Z,53.92
2018-11-22T22:32:56.941Z,52.20
2018-11-22T22:35:25.342Z,49.60
2018-11-22T22:37:53.761Z,54.55
2018-11-22T22:40:23.945Z,42.98
2018-11-22T22:42:54.573Z,44.00
2018-11-22T22:45:23.962Z,46.75
2018-11-22T22:47:52.650Z,46.85
2018-11-22T22:50:22.739Z,49.53
2018-11-22T22:52:52.370Z,45.85
2018-11-22T22:55:20.791Z,52.10
2018-11-22T22:57:49.126Z,53.08
2018-11-22T23:00:23.510Z,46.85
2018-11-22T23:02:55.912Z,45.33
2018-11-22T23:05:24.969Z,45.17
2018-11-22T23:07:53.488Z,45.33
2018-11-22T23:10:22.266Z,46.83
2018-11-22T23:12:50.810Z,46.20
2018-11-22T23:15:20.006Z,42.00
2018-11-22T23:17:49.521Z,50.75
2018-11-22T23:20:20.239Z,45.12
2018-11-22T23:22:48.943Z,41.33
2018-11-22T23:25:18.424Z,41.53
2018-11-22T23:27:46.770Z,42.88
2018-11-22T23:30:16.505Z,44.77
2018-11-22T23:32:46.453Z,47.48
2018-11-22T23:35:14.817Z,49.63
2018-11-22T23:37:43.464Z,43.63
2018-11-22T23:40:14.188Z,41.83
2018-11-22T23:42:42.594Z,46.10
2018-11-22T23:45:13.024Z,43.87
2018-11-22T23:47:42.157Z,51.50
2018-11-22T23:50:14.439Z,45.92
2018-11-22T23:52:43.926Z,45.90
2018-11-22T23:55:12.838Z,51.88
2018-11-22T23:57:41.307Z,42.05
